This is the latest recevied weather packets stored in our database for station/object KN4CI-1. If no packets are shown the sender has not sent any weather packets the latest 10 day(s).
| Time | Temp. | Humidity | Pressure | Rain* | Wind** | Luminosity | Snow |
|---|---|---|---|---|---|---|---|
| 1787428174 | 33.33° C | 11% | 1015.6 hPa | 0 mm | 0 m/s | - | - |
| 1787427569 | 33.33° C | 11% | 1015.6 hPa | 0 mm | 0 m/s | - | - |
| 1787426662 | 33.33° C | 12% | 1016.6 hPa | 0 mm | 0 m/s | - | - |
| 1787423942 | 32.22° C | 12% | 1016.6 hPa | 0 mm | 0 m/s | - | - |
| 1787423637 | 32.22° C | 12% | 1016.6 hPa | 0 mm | 0 m/s | - | - |
| 1787421816 | 32.22° C | 12% | 1016.6 hPa | 0 mm | 0 m/s | - | - |
| 1787421512 | 32.22° C | 12% | 1016.6 hPa | 0 mm | 0 m/s | - | - |
| 1787420308 | 31.67° C | 12% | 1017.6 hPa | 0 mm | 0 m/s | - | - |
| 1787411556 | 27.78° C | 19% | 1017.6 hPa | 0 mm | 0 m/s | - | - |
| 1787409439 | 26.67° C | 31% | 1016.6 hPa | 0 mm | 0 m/s | - | - |
| 1787404655 | 22.78° C | 48% | 1017.6 hPa | 0 mm | 0 m/s | - | - |
| 1787404616 | 22.78° C | 48% | 1017.6 hPa | 0 mm | 0 m/s | - | - |
| 1787404014 | 22.78° C | 50% | 1017.6 hPa | 0 mm | 0 m/s | - | - |
| 1787400399 | 20.56° C | 51% | 1016.6 hPa | 0 mm | 0 m/s | - | - |
| 1787400099 | 20.56° C | 51% | 1016.6 hPa | 0 mm | 0 m/s | - | - |
| 1787399192 | 20° C | 50% | 1016.6 hPa | 0 mm | 0 m/s | - | - |
| 1787398576 | 20° C | 49% | 1016.6 hPa | 0 mm | 0 m/s | - | - |
| 1787398274 | 20° C | 49% | 1016.6 hPa | 0 mm | 0 m/s | - | - |
| 1787397659 | 20° C | 48% | 1016.6 hPa | 0 mm | 0 m/s | - | - |
| 1787397055 | 20° C | 48% | 1016.6 hPa | 0 mm | 0 m/s | - | - |
| 1787396147 | 20° C | 48% | 1015.6 hPa | 0 mm | 0 m/s | - | - |
| 1787394314 | 20° C | 46% | 1015.6 hPa | 0 mm | 0 m/s | - | - |
| 1787394014 | 20.56° C | 45% | 1015.6 hPa | 0 mm | 0 m/s | - | - |
| 1787392799 | 20.56° C | 45% | 1015.6 hPa | 0 mm | 0 m/s | - | - |
| 1787391891 | 20.56° C | 44% | 1015.6 hPa | 0 mm | 0 m/s | - | - |
* Rain latest hour (hover to see other rain measurements)
** Current wind speed in m/s (hover to see current wind gust speed)